Triumph — WDC9555 — position and weather

sailwx.info

Track history (hours):
 
Tides and Currents Weather Stations Pressure Air Temp Water Temp Dewpoint Dewpoint Depression Visibility Wind Speed Wind Dir Waves Ship Positions

Triumph

Owner: WESTERN TOWBOAT CO, SEATTLE, WA. More information available from US FCC via Universal Licensing System and Coast Guard Vessel Documentation Center.

Last reported at 2017-Jul-19 22:37 UTC. Time now 2017-Jul-23 10:56 UTC.
Position N 47°34' W 122°21'.

Length 24 m; draft 3 m.

Type: Tow > 200 m length. MMSI: 367103880.

Date/timePositionNaut miles runAvg speedWind from/ knotsBaromVisibWave heightAir tempDewpointWater temp
2017-Jul-19 22:37N 47°34' W 122°21'0 1.8
2017-Jul-19 22:31N 47°34' W 122°21'1 2.2
2017-Jul-19 22:00N 47°35' W 122°22'2 4.3
2017-Jul-19 21:30N 47°37' W 122°24'4 7.1
2017-Jul-19 21:00N 47°39' W 122°27'3 6.9
2017-Jul-19 20:30N 47°42' W 122°28'4 7.5
2017-Jul-19 20:00N 47°46' W 122°27'4 7.4
2017-Jul-19 19:30N 47°50' W 122°28'4 7.6
2017-Jul-19 19:00N 47°53' W 122°30'4 7.8
2017-Jul-19 18:29N 47°57' W 122°33'12 8.5
2017-Jul-19 17:06N 48°07' W 122°41'2 8.6
2017-Jul-19 16:54N 48°08' W 122°43'5 8.5
2017-Jul-19 16:21N 48°12' W 122°48'5 7.9
2017-Jul-19 15:39N 48°17' W 122°48'2 9.1
2017-Jul-19 15:23N 48°20' W 122°47'4 9.7
2017-Jul-19 14:56N 48°24' W 122°45'4 9.6
2017-Jul-19 14:30N 48°28' W 122°45'510.1
2017-Jul-19 14:00N 48°33' W 122°45'510.1
2017-Jul-19 13:30N 48°38' W 122°44'4 8.4
2017-Jul-19 13:00N 48°42' W 122°45'4 7.5
2017-Jul-19 12:30N 48°45' W 122°48'4 7.1
2017-Jul-19 12:00N 48°47' W 122°53'4 8.5
2017-Jul-19 11:30N 48°50' W 122°58'4 8.3
2017-Jul-19 11:00N 48°52' W 123°03'4 7.8
2017-Jul-19 10:30N 48°54' W 123°08'11 7.8
2017-Jul-19 09:06N 49°02' W 123°20'1 7.5
2017-Jul-19 08:55N 49°03' W 123°20'3 6.4
2017-Jul-19 08:28N 49°06' W 123°19'3 6.3
2017-Jul-19 08:00N 49°08' W 123°15'3 5.6
2017-Jul-19 07:30N 49°07' W 123°11'3 5.9
2017-Jul-19 06:58N 49°07' W 123°06'3 5.8
2017-Jul-19 06:29N 49°09' W 123°02'0 0.9
2017-Jul-19 06:00N 49°09' W 123°02'0 0.0
2017-Jul-19 05:29N 49°09' W 123°02'0 0.0
2017-Jul-19 05:01N 49°09' W 123°02'0 0.0
2017-Jul-19 04:30N 49°09' W 123°02'0 0.0
2017-Jul-19 03:54N 49°09' W 123°02'0 0.0
2017-Jul-19 03:29N 49°09' W 123°02'0 0.0
2017-Jul-19 03:00N 49°09' W 123°02'0 0.0
2017-Jul-19 02:30N 49°09' W 123°02'0 0.0
2017-Jul-19 02:00N 49°09' W 123°02'0 0.0
2017-Jul-19 01:30N 49°09' W 123°02'0 0.0
2017-Jul-19 01:00N 49°09' W 123°02'0 0.0
2017-Jul-19 00:30N 49°09' W 123°02'0 0.0
2017-Jul-19 00:00N 49°09' W 123°02'0 0.0
2017-Jul-18 23:31N 49°09' W 123°02'0 0.0
2017-Jul-18 23:00N 49°09' W 123°02'0 0.0
2017-Jul-18 22:30N 49°09' W 123°02'0 0.0
2017-Jul-18 21:59N 49°09' W 123°02'0 0.0
2017-Jul-18 21:31N 49°09' W 123°02'0 0.0
2017-Jul-18 21:00N 49°09' W 123°02'0 0.0
2017-Jul-18 20:30N 49°09' W 123°02'0 0.0
2017-Jul-18 20:00N 49°09' W 123°02'0 0.0
2017-Jul-18 19:30N 49°09' W 123°02'0 0.0
2017-Jul-18 19:00N 49°09' W 123°02'0 0.0
2017-Jul-18 18:30N 49°09' W 123°02'0 0.0
2017-Jul-18 18:00N 49°09' W 123°02'0 0.0
2017-Jul-18 17:30N 49°09' W 123°02'0 0.0
2017-Jul-18 16:58N 49°09' W 123°02'0 0.0
2017-Jul-18 16:30N 49°09' W 123°02'0 0.0
2017-Jul-18 16:00N 49°09' W 123°02'0 0.0
2017-Jul-18 15:30N 49°09' W 123°02'0 0.0
2017-Jul-18 15:00N 49°09' W 123°02'0 0.0
2017-Jul-18 14:00N 49°09' W 123°02'0 0.0
2017-Jul-18 13:30N 49°09' W 123°02'0 0.0
2017-Jul-18 13:00N 49°09' W 123°02'0 0.0
2017-Jul-18 12:30N 49°09' W 123°02'0 0.0
2017-Jul-18 12:00N 49°09' W 123°02'0 0.0
2017-Jul-18 11:30N 49°09' W 123°02'0 0.0
2017-Jul-18 11:01N 49°09' W 123°02'0 0.0
2017-Jul-18 10:31N 49°09' W 123°02'0 0.1
2017-Jul-18 10:00N 49°09' W 123°02'1 1.6
2017-Jul-18 09:30N 49°09' W 123°03'6 6.3
2017-Jul-18 08:38N 49°07' W 123°11'1 8.1
2017-Jul-18 08:29N 49°08' W 123°13'3 5.8
2017-Jul-18 07:57N 49°07' W 123°17'3 5.9
2017-Jul-18 07:30N 49°05' W 123°20'4 7.6
2017-Jul-18 06:59N 49°02' W 123°16'4 9.0
2017-Jul-18 06:30N 48°59' W 123°11'5 8.8
2017-Jul-18 06:00N 48°56' W 123°06'18 8.4
2017-Jul-18 03:54N 48°45' W 122°45'4 9.3
2017-Jul-18 03:30N 48°42' W 122°43'4 8.6
2017-Jul-18 03:00N 48°37' W 122°44'4 8.9
2017-Jul-18 02:30N 48°33' W 122°45'5 9.2
2017-Jul-18 02:00N 48°28' W 122°44'10 8.8
2017-Jul-18 00:53N 48°19' W 122°46'21 9.2
2017-Jul-17 22:39N 47°59' W 122°35'210.7
2017-Jul-17 22:30N 47°58' W 122°34'5 9.9
2017-Jul-17 22:01N 47°55' W 122°28'5 9.4
2017-Jul-17 21:30N 47°50' W 122°27'4 9.0
2017-Jul-17 21:00N 47°46' W 122°26'5 9.2
2017-Jul-17 20:30N 47°41' W 122°27'4 8.6
2017-Jul-17 20:00N 47°37' W 122°25'4 7.1
2017-Jul-17 19:30N 47°34' W 122°21'0 0.8
2017-Jul-17 19:00N 47°34' W 122°21'0 0.0
2017-Jul-17 18:30N 47°34' W 122°21'0 0.0
2017-Jul-17 18:00N 47°34' W 122°21'  
2017-Jul-15 00:43N 47°34' W 122°21'1 4.8
2017-Jul-15 00:30N 47°35' W 122°22'1 1.4
2017-Jul-15 00:01N 47°35' W 122°22'2 3.8
2017-Jul-14 23:31N 47°35' W 122°25'3 6.6
2017-Jul-14 23:00N 47°32' W 122°25'3 5.7
2017-Jul-14 22:31N 47°29' W 122°24'4 7.2
2017-Jul-14 22:00N 47°26' W 122°22'3 6.6
2017-Jul-14 21:30N 47°22' W 122°21'4 7.3
2017-Jul-14 21:01N 47°20' W 122°25'3 5.2
2017-Jul-14 20:30N 47°17' W 122°25'0 0.0
2017-Jul-14 09:49N 47°17' W 122°25'1 2.4
2017-Jul-14 09:30N 47°17' W 122°26'3 5.8
2017-Jul-14 09:01N 47°20' W 122°27'4 9.0
2017-Jul-14 08:31N 47°23' W 122°22'4 8.7
2017-Jul-14 08:01N 47°27' W 122°23'4 8.2
2017-Jul-14 07:31N 47°31' W 122°25'4 8.3
2017-Jul-14 07:01N 47°35' W 122°25'2 5.0
2017-Jul-14 06:31N 47°34' W 122°21'2 4.1
2017-Jul-14 06:01N 47°36' W 122°23'5 9.3
2017-Jul-14 05:31N 47°40' W 122°26'2 3.0
2017-Jul-14 05:01N 47°40' W 122°24'1 2.5
2017-Jul-14 04:31N 47°39' W 122°22'  
2017-Jul-10 17:00N 47°39' W 122°22'1 2.9
2017-Jul-10 16:30N 47°40' W 122°24'2 3.3
2017-Jul-10 16:00N 47°40' W 122°26'510.7
2017-Jul-10 15:30N 47°36' W 122°22'3 5.9
2017-Jul-10 15:00N 47°33' W 122°20'2 3.7
2017-Jul-10 14:30N 47°34' W 122°21'1 2.2
2017-Jul-10 14:00N 47°36' W 122°22'  
Track history (hours):
 
Tides and Currents Weather Stations Pressure Air Temp Water Temp Dewpoint Dewpoint Depression Visibility Wind Speed Wind Dir Waves Ship Positions

Triumph

Owner: WESTERN TOWBOAT CO, SEATTLE, WA. More information available from US FCC via Universal Licensing System and Coast Guard Vessel Documentation Center.

Last reported at 2017-Jul-19 22:37 UTC. Time now 2017-Jul-23 10:56 UTC.
Position N 47°34' W 122°21'.

Length 24 m; draft 3 m.

Type: Tow > 200 m length. MMSI: 367103880.

Date/timePositionNaut miles runAvg speedWind from/ knotsBaromVisibWave heightAir tempDewpointWater temp
2017-Jul-19 22:37N 47°34' W 122°21'0 1.8
2017-Jul-19 22:31N 47°34' W 122°21'1 2.2
2017-Jul-19 22:00N 47°35' W 122°22'2 4.3
2017-Jul-19 21:30N 47°37' W 122°24'4 7.1
2017-Jul-19 21:00N 47°39' W 122°27'3 6.9
2017-Jul-19 20:30N 47°42' W 122°28'4 7.5
2017-Jul-19 20:00N 47°46' W 122°27'4 7.4
2017-Jul-19 19:30N 47°50' W 122°28'4 7.6
2017-Jul-19 19:00N 47°53' W 122°30'4 7.8
2017-Jul-19 18:29N 47°57' W 122°33'12 8.5
2017-Jul-19 17:06N 48°07' W 122°41'2 8.6
2017-Jul-19 16:54N 48°08' W 122°43'5 8.5
2017-Jul-19 16:21N 48°12' W 122°48'5 7.9
2017-Jul-19 15:39N 48°17' W 122°48'2 9.1
2017-Jul-19 15:23N 48°20' W 122°47'4 9.7
2017-Jul-19 14:56N 48°24' W 122°45'4 9.6
2017-Jul-19 14:30N 48°28' W 122°45'510.1
2017-Jul-19 14:00N 48°33' W 122°45'510.1
2017-Jul-19 13:30N 48°38' W 122°44'4 8.4
2017-Jul-19 13:00N 48°42' W 122°45'4 7.5
2017-Jul-19 12:30N 48°45' W 122°48'4 7.1
2017-Jul-19 12:00N 48°47' W 122°53'4 8.5
2017-Jul-19 11:30N 48°50' W 122°58'4 8.3
2017-Jul-19 11:00N 48°52' W 123°03'4 7.8
2017-Jul-19 10:30N 48°54' W 123°08'11 7.8
2017-Jul-19 09:06N 49°02' W 123°20'1 7.5
2017-Jul-19 08:55N 49°03' W 123°20'3 6.4
2017-Jul-19 08:28N 49°06' W 123°19'3 6.3
2017-Jul-19 08:00N 49°08' W 123°15'3 5.6
2017-Jul-19 07:30N 49°07' W 123°11'3 5.9
2017-Jul-19 06:58N 49°07' W 123°06'3 5.8
2017-Jul-19 06:29N 49°09' W 123°02'0 0.9
2017-Jul-19 06:00N 49°09' W 123°02'0 0.0
2017-Jul-19 05:29N 49°09' W 123°02'0 0.0
2017-Jul-19 05:01N 49°09' W 123°02'0 0.0
2017-Jul-19 04:30N 49°09' W 123°02'0 0.0
2017-Jul-19 03:54N 49°09' W 123°02'0 0.0
2017-Jul-19 03:29N 49°09' W 123°02'0 0.0
2017-Jul-19 03:00N 49°09' W 123°02'0 0.0
2017-Jul-19 02:30N 49°09' W 123°02'0 0.0
2017-Jul-19 02:00N 49°09' W 123°02'0 0.0
2017-Jul-19 01:30N 49°09' W 123°02'0 0.0
2017-Jul-19 01:00N 49°09' W 123°02'0 0.0
2017-Jul-19 00:30N 49°09' W 123°02'0 0.0
2017-Jul-19 00:00N 49°09' W 123°02'0 0.0
2017-Jul-18 23:31N 49°09' W 123°02'0 0.0
2017-Jul-18 23:00N 49°09' W 123°02'0 0.0
2017-Jul-18 22:30N 49°09' W 123°02'0 0.0
2017-Jul-18 21:59N 49°09' W 123°02'0 0.0
2017-Jul-18 21:31N 49°09' W 123°02'0 0.0
2017-Jul-18 21:00N 49°09' W 123°02'0 0.0
2017-Jul-18 20:30N 49°09' W 123°02'0 0.0
2017-Jul-18 20:00N 49°09' W 123°02'0 0.0
2017-Jul-18 19:30N 49°09' W 123°02'0 0.0
2017-Jul-18 19:00N 49°09' W 123°02'0 0.0
2017-Jul-18 18:30N 49°09' W 123°02'0 0.0
2017-Jul-18 18:00N 49°09' W 123°02'0 0.0
2017-Jul-18 17:30N 49°09' W 123°02'0 0.0
2017-Jul-18 16:58N 49°09' W 123°02'0 0.0
2017-Jul-18 16:30N 49°09' W 123°02'0 0.0
2017-Jul-18 16:00N 49°09' W 123°02'0 0.0
2017-Jul-18 15:30N 49°09' W 123°02'0 0.0
2017-Jul-18 15:00N 49°09' W 123°02'0 0.0
2017-Jul-18 14:00N 49°09' W 123°02'0 0.0
2017-Jul-18 13:30N 49°09' W 123°02'0 0.0
2017-Jul-18 13:00N 49°09' W 123°02'0 0.0
2017-Jul-18 12:30N 49°09' W 123°02'0 0.0
2017-Jul-18 12:00N 49°09' W 123°02'0 0.0
2017-Jul-18 11:30N 49°09' W 123°02'0 0.0
2017-Jul-18 11:01N 49°09' W 123°02'0 0.0
2017-Jul-18 10:31N 49°09' W 123°02'0 0.1
2017-Jul-18 10:00N 49°09' W 123°02'1 1.6
2017-Jul-18 09:30N 49°09' W 123°03'6 6.3
2017-Jul-18 08:38N 49°07' W 123°11'1 8.1
2017-Jul-18 08:29N 49°08' W 123°13'3 5.8
2017-Jul-18 07:57N 49°07' W 123°17'3 5.9
2017-Jul-18 07:30N 49°05' W 123°20'4 7.6
2017-Jul-18 06:59N 49°02' W 123°16'4 9.0
2017-Jul-18 06:30N 48°59' W 123°11'5 8.8
2017-Jul-18 06:00N 48°56' W 123°06'18 8.4
2017-Jul-18 03:54N 48°45' W 122°45'4 9.3
2017-Jul-18 03:30N 48°42' W 122°43'4 8.6
2017-Jul-18 03:00N 48°37' W 122°44'4 8.9
2017-Jul-18 02:30N 48°33' W 122°45'5 9.2
2017-Jul-18 02:00N 48°28' W 122°44'10 8.8
2017-Jul-18 00:53N 48°19' W 122°46'21 9.2
2017-Jul-17 22:39N 47°59' W 122°35'210.7
2017-Jul-17 22:30N 47°58' W 122°34'5 9.9
2017-Jul-17 22:01N 47°55' W 122°28'5 9.4
2017-Jul-17 21:30N 47°50' W 122°27'4 9.0
2017-Jul-17 21:00N 47°46' W 122°26'5 9.2
2017-Jul-17 20:30N 47°41' W 122°27'4 8.6
2017-Jul-17 20:00N 47°37' W 122°25'4 7.1
2017-Jul-17 19:30N 47°34' W 122°21'0 0.8
2017-Jul-17 19:00N 47°34' W 122°21'0 0.0
2017-Jul-17 18:30N 47°34' W 122°21'0 0.0
2017-Jul-17 18:00N 47°34' W 122°21'  
2017-Jul-15 00:43N 47°34' W 122°21'1 4.8
2017-Jul-15 00:30N 47°35' W 122°22'1 1.4
2017-Jul-15 00:01N 47°35' W 122°22'2 3.8
2017-Jul-14 23:31N 47°35' W 122°25'3 6.6
2017-Jul-14 23:00N 47°32' W 122°25'3 5.7
2017-Jul-14 22:31N 47°29' W 122°24'4 7.2
2017-Jul-14 22:00N 47°26' W 122°22'3 6.6
2017-Jul-14 21:30N 47°22' W 122°21'4 7.3
2017-Jul-14 21:01N 47°20' W 122°25'3 5.2
2017-Jul-14 20:30N 47°17' W 122°25'0 0.0
2017-Jul-14 09:49N 47°17' W 122°25'1 2.4
2017-Jul-14 09:30N 47°17' W 122°26'3 5.8
2017-Jul-14 09:01N 47°20' W 122°27'4 9.0
2017-Jul-14 08:31N 47°23' W 122°22'4 8.7
2017-Jul-14 08:01N 47°27' W 122°23'4 8.2
2017-Jul-14 07:31N 47°31' W 122°25'4 8.3
2017-Jul-14 07:01N 47°35' W 122°25'2 5.0
2017-Jul-14 06:31N 47°34' W 122°21'2 4.1
2017-Jul-14 06:01N 47°36' W 122°23'5 9.3
2017-Jul-14 05:31N 47°40' W 122°26'2 3.0
2017-Jul-14 05:01N 47°40' W 122°24'1 2.5
2017-Jul-14 04:31N 47°39' W 122°22'  
2017-Jul-10 17:00N 47°39' W 122°22'1 2.9
2017-Jul-10 16:30N 47°40' W 122°24'2 3.3
2017-Jul-10 16:00N 47°40' W 122°26'510.7
2017-Jul-10 15:30N 47°36' W 122°22'3 5.9
2017-Jul-10 15:00N 47°33' W 122°20'2 3.7
2017-Jul-10 14:30N 47°34' W 122°21'1 2.2
2017-Jul-10 14:00N 47°36' W 122°22'  

Dump ship's entire track history